sensor_id;sensor_type;location;lat;lon;timestamp;P1;durP1;ratioP1;P2;durP2;ratioP2
28836;SDS011;50669;50.982;11.022;2023-07-02T00:02:07;1.00;;;1.00;;
28836;SDS011;50669;50.982;11.022;2023-07-02T00:04:33;1.13;;;1.02;;
28836;SDS011;50669;50.982;11.022;2023-07-02T00:06:59;1.10;;;1.00;;
28836;SDS011;50669;50.982;11.022;2023-07-02T00:09:26;1.20;;;1.10;;
28836;SDS011;50669;50.982;11.022;2023-07-02T00:11:52;1.00;;;0.90;;
28836;SDS011;50669;50.982;11.022;2023-07-02T00:14:18;1.00;;;0.90;;
28836;SDS011;50669;50.982;11.022;2023-07-02T00:16:44;1.10;;;1.00;;
28836;SDS011;50669;50.982;11.022;2023-07-02T00:19:13;1.10;;;1.00;;
28836;SDS011;50669;50.982;11.022;2023-07-02T00:21:39;1.20;;;1.10;;
28836;SDS011;50669;50.982;11.022;2023-07-02T00:24:06;1.45;;;1.23;;
28836;SDS011;50669;50.982;11.022;2023-07-02T00:26:34;1.25;;;1.15;;
28836;SDS011;50669;50.982;11.022;2023-07-02T00:29:02;1.10;;;1.00;;
28836;SDS011;50669;50.982;11.022;2023-07-02T00:31:29;1.00;;;0.90;;
28836;SDS011;50669;50.982;11.022;2023-07-02T00:33:54;1.13;;;1.05;;
28836;SDS011;50669;50.982;11.022;2023-07-02T00:36:20;1.20;;;1.10;;
28836;SDS011;50669;50.982;11.022;2023-07-02T00:38:49;0.93;;;0.90;;
28836;SDS011;50669;50.982;11.022;2023-07-02T00:41:15;1.35;;;1.00;;
28836;SDS011;50669;50.982;11.022;2023-07-02T00:43:41;1.23;;;1.13;;
28836;SDS011;50669;50.982;11.022;2023-07-02T00:48:47;0.80;;;0.80;;
28836;SDS011;50669;50.982;11.022;2023-07-02T00:51:17;1.33;;;1.00;;
28836;SDS011;50669;50.982;11.022;2023-07-02T00:53:48;1.17;;;1.08;;
28836;SDS011;50669;50.982;11.022;2023-07-02T00:56:17;1.15;;;1.05;;
28836;SDS011;50669;50.982;11.022;2023-07-02T00:58:45;1.42;;;1.33;;
28836;SDS011;50669;50.982;11.022;2023-07-02T01:01:17;1.52;;;1.08;;
28836;SDS011;50669;50.982;11.022;2023-07-02T01:03:50;1.15;;;1.00;;
28836;SDS011;50669;50.982;11.022;2023-07-02T01:06:23;1.23;;;1.13;;
28836;SDS011;50669;50.982;11.022;2023-07-02T01:08:50;1.00;;;0.90;;
28836;SDS011;50669;50.982;11.022;2023-07-02T01:11:18;1.27;;;1.17;;
28836;SDS011;50669;50.982;11.022;2023-07-02T01:13:45;1.20;;;1.10;;
28836;SDS011;50669;50.982;11.022;2023-07-02T01:16:13;1.00;;;0.90;;
28836;SDS011;50669;50.982;11.022;2023-07-02T01:18:39;0.90;;;0.80;;
28836;SDS011;50669;50.982;11.022;2023-07-02T01:21:07;1.30;;;1.20;;
28836;SDS011;50669;50.982;11.022;2023-07-02T01:23:33;1.17;;;1.05;;
28836;SDS011;50669;50.982;11.022;2023-07-02T01:25:59;1.00;;;0.90;;
28836;SDS011;50669;50.982;11.022;2023-07-02T01:28:33;1.30;;;1.20;;
28836;SDS011;50669;50.982;11.022;2023-07-02T01:31:00;1.00;;;0.93;;
28836;SDS011;50669;50.982;11.022;2023-07-02T01:33:28;1.13;;;0.93;;
28836;SDS011;50669;50.982;11.022;2023-07-02T01:35:56;1.20;;;1.10;;
28836;SDS011;50669;50.982;11.022;2023-07-02T01:38:24;0.90;;;0.90;;
28836;SDS011;50669;50.982;11.022;2023-07-02T01:40:50;0.70;;;0.70;;
28836;SDS011;50669;50.982;11.022;2023-07-02T01:43:15;0.90;;;0.90;;
28836;SDS011;50669;50.982;11.022;2023-07-02T01:45:41;1.50;;;1.33;;
28836;SDS011;50669;50.982;11.022;2023-07-02T01:48:07;1.25;;;1.15;;
28836;SDS011;50669;50.982;11.022;2023-07-02T01:50:33;1.00;;;0.90;;
28836;SDS011;50669;50.982;11.022;2023-07-02T01:53:01;1.30;;;1.20;;
28836;SDS011;50669;50.982;11.022;2023-07-02T01:55:27;1.30;;;1.20;;
28836;SDS011;50669;50.982;11.022;2023-07-02T01:57:55;1.15;;;1.05;;
28836;SDS011;50669;50.982;11.022;2023-07-02T02:00:23;1.30;;;1.20;;
28836;SDS011;50669;50.982;11.022;2023-07-02T02:02:50;1.20;;;1.10;;
28836;SDS011;50669;50.982;11.022;2023-07-02T02:05:17;1.15;;;1.05;;
28836;SDS011;50669;50.982;11.022;2023-07-02T02:07:43;1.10;;;1.05;;
28836;SDS011;50669;50.982;11.022;2023-07-02T02:10:09;0.98;;;0.88;;
28836;SDS011;50669;50.982;11.022;2023-07-02T02:12:35;1.10;;;1.00;;
28836;SDS011;50669;50.982;11.022;2023-07-02T02:15:00;1.10;;;1.00;;
28836;SDS011;50669;50.982;11.022;2023-07-02T02:17:27;1.02;;;0.93;;
28836;SDS011;50669;50.982;11.022;2023-07-02T02:19:52;1.25;;;0.95;;
28836;SDS011;50669;50.982;11.022;2023-07-02T02:22:18;1.35;;;1.25;;
28836;SDS011;50669;50.982;11.022;2023-07-02T02:24:43;1.02;;;0.95;;
28836;SDS011;50669;50.982;11.022;2023-07-02T02:27:09;1.40;;;1.20;;
28836;SDS011;50669;50.982;11.022;2023-07-02T02:29:35;1.00;;;0.88;;
28836;SDS011;50669;50.982;11.022;2023-07-02T02:32:03;1.10;;;1.00;;
28836;SDS011;50669;50.982;11.022;2023-07-02T02:34:29;1.10;;;1.00;;
28836;SDS011;50669;50.982;11.022;2023-07-02T02:36:54;1.17;;;1.00;;
28836;SDS011;50669;50.982;11.022;2023-07-02T02:39:21;1.20;;;1.10;;
28836;SDS011;50669;50.982;11.022;2023-07-02T02:41:46;1.10;;;1.00;;
28836;SDS011;50669;50.982;11.022;2023-07-02T02:44:12;1.45;;;1.15;;
28836;SDS011;50669;50.982;11.022;2023-07-02T02:46:38;1.13;;;1.02;;
28836;SDS011;50669;50.982;11.022;2023-07-02T02:49:03;0.98;;;0.90;;
28836;SDS011;50669;50.982;11.022;2023-07-02T02:51:31;1.10;;;1.00;;
28836;SDS011;50669;50.982;11.022;2023-07-02T02:53:57;1.10;;;1.00;;
28836;SDS011;50669;50.982;11.022;2023-07-02T02:56:22;0.90;;;0.90;;
28836;SDS011;50669;50.982;11.022;2023-07-02T02:58:49;1.15;;;1.02;;
28836;SDS011;50669;50.982;11.022;2023-07-02T03:01:14;1.10;;;1.00;;
28836;SDS011;50669;50.982;11.022;2023-07-02T03:03:40;1.05;;;0.95;;
28836;SDS011;50669;50.982;11.022;2023-07-02T03:06:10;1.05;;;0.95;;
28836;SDS011;50669;50.982;11.022;2023-07-02T03:08:39;0.88;;;0.88;;
28836;SDS011;50669;50.982;11.022;2023-07-02T03:11:05;1.00;;;0.90;;
28836;SDS011;50669;50.982;11.022;2023-07-02T03:13:31;1.05;;;0.85;;
28836;SDS011;50669;50.982;11.022;2023-07-02T03:15:59;1.10;;;1.00;;
28836;SDS011;50669;50.982;11.022;2023-07-02T03:18:25;0.95;;;0.90;;
28836;SDS011;50669;50.982;11.022;2023-07-02T03:20:53;1.15;;;1.05;;
28836;SDS011;50669;50.982;11.022;2023-07-02T03:23:18;0.80;;;0.80;;
28836;SDS011;50669;50.982;11.022;2023-07-02T03:25:44;1.17;;;1.08;;
28836;SDS011;50669;50.982;11.022;2023-07-02T03:28:12;1.20;;;1.10;;
28836;SDS011;50669;50.982;11.022;2023-07-02T03:30:40;0.98;;;0.90;;
28836;SDS011;50669;50.982;11.022;2023-07-02T03:33:08;0.95;;;0.85;;
28836;SDS011;50669;50.982;11.022;2023-07-02T03:35:34;1.10;;;1.00;;
28836;SDS011;50669;50.982;11.022;2023-07-02T03:38:03;0.85;;;0.82;;
28836;SDS011;50669;50.982;11.022;2023-07-02T03:40:31;1.15;;;1.00;;
28836;SDS011;50669;50.982;11.022;2023-07-02T03:42:59;1.13;;;1.02;;
28836;SDS011;50669;50.982;11.022;2023-07-02T03:45:25;1.33;;;1.10;;
28836;SDS011;50669;50.982;11.022;2023-07-02T03:47:53;0.80;;;0.80;;
28836;SDS011;50669;50.982;11.022;2023-07-02T03:50:21;1.13;;;1.00;;
28836;SDS011;50669;50.982;11.022;2023-07-02T03:52:49;0.90;;;0.90;;
28836;SDS011;50669;50.982;11.022;2023-07-02T03:55:15;0.82;;;0.82;;
28836;SDS011;50669;50.982;11.022;2023-07-02T03:57:41;0.90;;;0.90;;
28836;SDS011;50669;50.982;11.022;2023-07-02T04:00:06;1.20;;;1.10;;
28836;SDS011;50669;50.982;11.022;2023-07-02T04:02:37;1.02;;;0.90;;
28836;SDS011;50669;50.982;11.022;2023-07-02T04:05:05;1.05;;;0.90;;
28836;SDS011;50669;50.982;11.022;2023-07-02T04:07:31;0.95;;;0.85;;
28836;SDS011;50669;50.982;11.022;2023-07-02T04:09:56;1.05;;;0.95;;
28836;SDS011;50669;50.982;11.022;2023-07-02T04:12:24;1.02;;;0.93;;
28836;SDS011;50669;50.982;11.022;2023-07-02T04:14:50;1.10;;;1.00;;
28836;SDS011;50669;50.982;11.022;2023-07-02T04:17:16;1.10;;;1.00;;
28836;SDS011;50669;50.982;11.022;2023-07-02T04:19:42;1.10;;;1.00;;
28836;SDS011;50669;50.982;11.022;2023-07-02T04:22:09;0.80;;;0.80;;
28836;SDS011;50669;50.982;11.022;2023-07-02T04:24:37;1.10;;;1.00;;
28836;SDS011;50669;50.982;11.022;2023-07-02T04:27:05;1.08;;;1.00;;
28836;SDS011;50669;50.982;11.022;2023-07-02T04:29:31;1.20;;;1.10;;
28836;SDS011;50669;50.982;11.022;2023-07-02T04:31:57;0.88;;;0.82;;
28836;SDS011;50669;50.982;11.022;2023-07-02T04:34:23;0.80;;;0.75;;
28836;SDS011;50669;50.982;11.022;2023-07-02T04:36:49;1.23;;;1.13;;
28836;SDS011;50669;50.982;11.022;2023-07-02T04:39:17;1.05;;;0.95;;
28836;SDS011;50669;50.982;11.022;2023-07-02T04:41:45;0.95;;;0.90;;
28836;SDS011;50669;50.982;11.022;2023-07-02T04:44:17;1.10;;;0.95;;
28836;SDS011;50669;50.982;11.022;2023-07-02T04:46:43;1.00;;;0.90;;
28836;SDS011;50669;50.982;11.022;2023-07-02T04:49:08;1.00;;;0.88;;
28836;SDS011;50669;50.982;11.022;2023-07-02T04:51:36;1.15;;;1.05;;
28836;SDS011;50669;50.982;11.022;2023-07-02T04:54:02;1.10;;;1.00;;
28836;SDS011;50669;50.982;11.022;2023-07-02T04:56:28;0.90;;;0.90;;
28836;SDS011;50669;50.982;11.022;2023-07-02T04:58:53;0.80;;;0.77;;
28836;SDS011;50669;50.982;11.022;2023-07-02T05:01:21;1.00;;;0.90;;
28836;SDS011;50669;50.982;11.022;2023-07-02T05:03:47;0.80;;;0.80;;
28836;SDS011;50669;50.982;11.022;2023-07-02T05:06:15;1.10;;;1.00;;
28836;SDS011;50669;50.982;11.022;2023-07-02T05:08:40;1.15;;;1.05;;
28836;SDS011;50669;50.982;11.022;2023-07-02T05:11:06;0.82;;;0.75;;
28836;SDS011;50669;50.982;11.022;2023-07-02T05:13:34;0.82;;;0.82;;
28836;SDS011;50669;50.982;11.022;2023-07-02T05:16:04;0.85;;;0.80;;
28836;SDS011;50669;50.982;11.022;2023-07-02T05:18:30;0.70;;;0.70;;
28836;SDS011;50669;50.982;11.022;2023-07-02T05:20:56;1.00;;;0.90;;
28836;SDS011;50669;50.982;11.022;2023-07-02T05:23:24;1.10;;;1.00;;
28836;SDS011;50669;50.982;11.022;2023-07-02T05:25:49;1.13;;;1.02;;
28836;SDS011;50669;50.982;11.022;2023-07-02T05:28:19;0.80;;;0.80;;
28836;SDS011;50669;50.982;11.022;2023-07-02T05:30:45;0.88;;;0.88;;
28836;SDS011;50669;50.982;11.022;2023-07-02T05:33:11;0.93;;;0.85;;
28836;SDS011;50669;50.982;11.022;2023-07-02T05:35:37;1.00;;;0.82;;
28836;SDS011;50669;50.982;11.022;2023-07-02T05:38:03;0.95;;;0.95;;
28836;SDS011;50669;50.982;11.022;2023-07-02T05:40:28;0.90;;;0.90;;
28836;SDS011;50669;50.982;11.022;2023-07-02T05:42:54;1.10;;;1.00;;
28836;SDS011;50669;50.982;11.022;2023-07-02T05:45:22;0.80;;;0.80;;
28836;SDS011;50669;50.982;11.022;2023-07-02T05:47:48;1.00;;;0.90;;
28836;SDS011;50669;50.982;11.022;2023-07-02T05:50:16;0.80;;;0.80;;
28836;SDS011;50669;50.982;11.022;2023-07-02T05:52:44;1.00;;;0.90;;
28836;SDS011;50669;50.982;11.022;2023-07-02T05:55:10;1.15;;;1.05;;
28836;SDS011;50669;50.982;11.022;2023-07-02T05:57:36;1.00;;;0.90;;
28836;SDS011;50669;50.982;11.022;2023-07-02T06:00:04;1.15;;;0.98;;
28836;SDS011;50669;50.982;11.022;2023-07-02T06:02:31;1.10;;;1.00;;
28836;SDS011;50669;50.982;11.022;2023-07-02T06:04:59;0.90;;;0.80;;
28836;SDS011;50669;50.982;11.022;2023-07-02T06:07:27;0.77;;;0.77;;
28836;SDS011;50669;50.982;11.022;2023-07-02T06:09:53;1.05;;;0.95;;
28836;SDS011;50669;50.982;11.022;2023-07-02T06:12:19;1.10;;;1.00;;
28836;SDS011;50669;50.982;11.022;2023-07-02T06:14:46;0.90;;;0.90;;
28836;SDS011;50669;50.982;11.022;2023-07-02T06:17:16;0.80;;;0.80;;
28836;SDS011;50669;50.982;11.022;2023-07-02T06:19:45;1.20;;;1.00;;
28836;SDS011;50669;50.982;11.022;2023-07-02T06:22:14;1.33;;;1.00;;
28836;SDS011;50669;50.982;11.022;2023-07-02T06:24:42;1.10;;;1.00;;
28836;SDS011;50669;50.982;11.022;2023-07-02T06:27:07;0.82;;;0.82;;
28836;SDS011;50669;50.982;11.022;2023-07-02T06:29:35;0.85;;;0.85;;
28836;SDS011;50669;50.982;11.022;2023-07-02T06:32:01;0.90;;;0.82;;
28836;SDS011;50669;50.982;11.022;2023-07-02T06:34:29;0.85;;;0.80;;
28836;SDS011;50669;50.982;11.022;2023-07-02T06:36:55;1.05;;;0.95;;
28836;SDS011;50669;50.982;11.022;2023-07-02T06:39:20;1.00;;;0.90;;
28836;SDS011;50669;50.982;11.022;2023-07-02T06:41:48;0.63;;;0.63;;
28836;SDS011;50669;50.982;11.022;2023-07-02T06:44:14;0.73;;;0.73;;
28836;SDS011;50669;50.982;11.022;2023-07-02T06:46:40;0.80;;;0.80;;
28836;SDS011;50669;50.982;11.022;2023-07-02T06:49:08;0.93;;;0.90;;
28836;SDS011;50669;50.982;11.022;2023-07-02T06:51:33;1.10;;;0.98;;
28836;SDS011;50669;50.982;11.022;2023-07-02T06:54:01;1.02;;;0.98;;
28836;SDS011;50669;50.982;11.022;2023-07-02T06:56:27;0.77;;;0.77;;
28836;SDS011;50669;50.982;11.022;2023-07-02T06:58:53;1.00;;;0.90;;
28836;SDS011;50669;50.982;11.022;2023-07-02T07:01:19;0.70;;;0.70;;
28836;SDS011;50669;50.982;11.022;2023-07-02T07:03:44;1.00;;;0.90;;
28836;SDS011;50669;50.982;11.022;2023-07-02T07:06:11;1.10;;;1.00;;
28836;SDS011;50669;50.982;11.022;2023-07-02T07:08:39;0.70;;;0.70;;
28836;SDS011;50669;50.982;11.022;2023-07-02T07:11:07;0.85;;;0.85;;
28836;SDS011;50669;50.982;11.022;2023-07-02T07:13:32;0.57;;;0.57;;
28836;SDS011;50669;50.982;11.022;2023-07-02T07:15:58;1.00;;;0.90;;
28836;SDS011;50669;50.982;11.022;2023-07-02T07:18:24;0.80;;;0.80;;
28836;SDS011;50669;50.982;11.022;2023-07-02T07:20:52;0.80;;;0.80;;
28836;SDS011;50669;50.982;11.022;2023-07-02T07:23:17;1.00;;;0.90;;
28836;SDS011;50669;50.982;11.022;2023-07-02T07:25:46;1.15;;;0.90;;
28836;SDS011;50669;50.982;11.022;2023-07-02T07:28:11;0.93;;;0.90;;
28836;SDS011;50669;50.982;11.022;2023-07-02T07:30:41;0.80;;;0.80;;
28836;SDS011;50669;50.982;11.022;2023-07-02T07:33:07;0.90;;;0.90;;
28836;SDS011;50669;50.982;11.022;2023-07-02T07:35:32;0.70;;;0.70;;
28836;SDS011;50669;50.982;11.022;2023-07-02T07:37:58;0.80;;;0.77;;
28836;SDS011;50669;50.982;11.022;2023-07-02T07:40:24;1.00;;;0.90;;
28836;SDS011;50669;50.982;11.022;2023-07-02T07:42:52;1.05;;;0.82;;
28836;SDS011;50669;50.982;11.022;2023-07-02T07:45:17;0.93;;;0.82;;
28836;SDS011;50669;50.982;11.022;2023-07-02T07:47:43;0.73;;;0.70;;
28836;SDS011;50669;50.982;11.022;2023-07-02T07:50:10;0.82;;;0.82;;
28836;SDS011;50669;50.982;11.022;2023-07-02T07:52:42;0.80;;;0.80;;
28836;SDS011;50669;50.982;11.022;2023-07-02T07:55:08;0.93;;;0.93;;
28836;SDS011;50669;50.982;11.022;2023-07-02T07:57:36;1.00;;;0.90;;
28836;SDS011;50669;50.982;11.022;2023-07-02T08:00:03;0.95;;;0.90;;
28836;SDS011;50669;50.982;11.022;2023-07-02T08:02:33;0.88;;;0.80;;
28836;SDS011;50669;50.982;11.022;2023-07-02T08:04:58;1.08;;;1.00;;
28836;SDS011;50669;50.982;11.022;2023-07-02T08:07:24;0.93;;;0.90;;
28836;SDS011;50669;50.982;11.022;2023-07-02T08:09:52;0.80;;;0.80;;
28836;SDS011;50669;50.982;11.022;2023-07-02T08:12:19;0.98;;;0.88;;
28836;SDS011;50669;50.982;11.022;2023-07-02T08:14:45;0.73;;;0.70;;
28836;SDS011;50669;50.982;11.022;2023-07-02T08:17:13;1.00;;;0.90;;
28836;SDS011;50669;50.982;11.022;2023-07-02T08:19:41;0.75;;;0.75;;
28836;SDS011;50669;50.982;11.022;2023-07-02T08:22:09;0.80;;;0.80;;
28836;SDS011;50669;50.982;11.022;2023-07-02T08:24:37;0.70;;;0.70;;
28836;SDS011;50669;50.982;11.022;2023-07-02T08:27:08;1.00;;;0.90;;
28836;SDS011;50669;50.982;11.022;2023-07-02T08:29:35;0.82;;;0.70;;
28836;SDS011;50669;50.982;11.022;2023-07-02T08:32:01;1.10;;;1.00;;
28836;SDS011;50669;50.982;11.022;2023-07-02T08:34:28;0.73;;;0.65;;
28836;SDS011;50669;50.982;11.022;2023-07-02T08:36:54;0.85;;;0.82;;
28836;SDS011;50669;50.982;11.022;2023-07-02T08:39:22;0.73;;;0.73;;
28836;SDS011;50669;50.982;11.022;2023-07-02T08:41:48;0.60;;;0.60;;
28836;SDS011;50669;50.982;11.022;2023-07-02T08:44:14;0.70;;;0.70;;
28836;SDS011;50669;50.982;11.022;2023-07-02T08:46:46;1.00;;;0.93;;
28836;SDS011;50669;50.982;11.022;2023-07-02T08:49:15;0.80;;;0.80;;
28836;SDS011;50669;50.982;11.022;2023-07-02T08:51:44;0.98;;;0.98;;
28836;SDS011;50669;50.982;11.022;2023-07-02T08:54:11;0.80;;;0.80;;
28836;SDS011;50669;50.982;11.022;2023-07-02T08:56:36;0.70;;;0.68;;
28836;SDS011;50669;50.982;11.022;2023-07-02T08:59:03;0.85;;;0.82;;
28836;SDS011;50669;50.982;11.022;2023-07-02T09:01:31;0.80;;;0.80;;
28836;SDS011;50669;50.982;11.022;2023-07-02T09:03:59;0.95;;;0.90;;
28836;SDS011;50669;50.982;11.022;2023-07-02T09:06:27;1.08;;;0.73;;
28836;SDS011;50669;50.982;11.022;2023-07-02T09:09:02;0.88;;;0.70;;
28836;SDS011;50669;50.982;11.022;2023-07-02T09:11:31;0.80;;;0.80;;
28836;SDS011;50669;50.982;11.022;2023-07-02T09:13:59;1.00;;;0.85;;
28836;SDS011;50669;50.982;11.022;2023-07-02T09:19:02;0.60;;;0.60;;
28836;SDS011;50669;50.982;11.022;2023-07-02T09:21:38;0.80;;;0.80;;
28836;SDS011;50669;50.982;11.022;2023-07-02T09:26:45;0.85;;;0.80;;
28836;SDS011;50669;50.982;11.022;2023-07-02T09:29:11;0.88;;;0.82;;
28836;SDS011;50669;50.982;11.022;2023-07-02T09:31:44;0.85;;;0.85;;
28836;SDS011;50669;50.982;11.022;2023-07-02T09:34:11;1.15;;;1.00;;
28836;SDS011;50669;50.982;11.022;2023-07-02T09:36:37;1.10;;;1.00;;
28836;SDS011;50669;50.982;11.022;2023-07-02T09:39:11;0.70;;;0.70;;
28836;SDS011;50669;50.982;11.022;2023-07-02T09:41:41;1.13;;;0.98;;
28836;SDS011;50669;50.982;11.022;2023-07-02T09:44:09;0.80;;;0.80;;
28836;SDS011;50669;50.982;11.022;2023-07-02T09:46:45;0.80;;;0.80;;
28836;SDS011;50669;50.982;11.022;2023-07-02T09:49:18;0.73;;;0.73;;
28836;SDS011;50669;50.982;11.022;2023-07-02T09:51:49;0.65;;;0.60;;
28836;SDS011;50669;50.982;11.022;2023-07-02T09:54:15;1.00;;;0.90;;
28836;SDS011;50669;50.982;11.022;2023-07-02T09:56:41;0.70;;;0.70;;
28836;SDS011;50669;50.982;11.022;2023-07-02T09:59:10;0.70;;;0.70;;
28836;SDS011;50669;50.982;11.022;2023-07-02T10:01:36;0.70;;;0.70;;
28836;SDS011;50669;50.982;11.022;2023-07-02T10:04:12;0.80;;;0.80;;
28836;SDS011;50669;50.982;11.022;2023-07-02T10:06:47;1.02;;;0.90;;
28836;SDS011;50669;50.982;11.022;2023-07-02T10:09:21;0.90;;;0.90;;
28836;SDS011;50669;50.982;11.022;2023-07-02T10:14:42;0.80;;;0.80;;
28836;SDS011;50669;50.982;11.022;2023-07-02T10:17:08;0.80;;;0.70;;
28836;SDS011;50669;50.982;11.022;2023-07-02T10:19:34;0.77;;;0.77;;
28836;SDS011;50669;50.982;11.022;2023-07-02T10:22:03;0.88;;;0.82;;
28836;SDS011;50669;50.982;11.022;2023-07-02T10:24:34;0.80;;;0.80;;
28836;SDS011;50669;50.982;11.022;2023-07-02T10:27:00;0.75;;;0.75;;
28836;SDS011;50669;50.982;11.022;2023-07-02T10:29:27;0.70;;;0.70;;
28836;SDS011;50669;50.982;11.022;2023-07-02T10:31:56;0.70;;;0.70;;
28836;SDS011;50669;50.982;11.022;2023-07-02T10:34:32;0.88;;;0.82;;
28836;SDS011;50669;50.982;11.022;2023-07-02T10:37:02;0.73;;;0.73;;
28836;SDS011;50669;50.982;11.022;2023-07-02T10:39:31;1.00;;;0.90;;
28836;SDS011;50669;50.982;11.022;2023-07-02T10:42:06;0.90;;;0.82;;
28836;SDS011;50669;50.982;11.022;2023-07-02T10:44:33;0.80;;;0.80;;
28836;SDS011;50669;50.982;11.022;2023-07-02T10:47:03;0.60;;;0.60;;
28836;SDS011;50669;50.982;11.022;2023-07-02T10:49:29;0.80;;;0.80;;
28836;SDS011;50669;50.982;11.022;2023-07-02T10:51:57;1.00;;;0.88;;
28836;SDS011;50669;50.982;11.022;2023-07-02T10:54:26;0.82;;;0.70;;
28836;SDS011;50669;50.982;11.022;2023-07-02T10:57:04;0.73;;;0.63;;
28836;SDS011;50669;50.982;11.022;2023-07-02T10:59:35;0.75;;;0.73;;
28836;SDS011;50669;50.982;11.022;2023-07-02T11:02:01;0.85;;;0.85;;
28836;SDS011;50669;50.982;11.022;2023-07-02T11:04:27;0.75;;;0.70;;
28836;SDS011;50669;50.982;11.022;2023-07-02T11:06:56;0.90;;;0.90;;
28836;SDS011;50669;50.982;11.022;2023-07-02T11:09:21;0.85;;;0.80;;
28836;SDS011;50669;50.982;11.022;2023-07-02T11:16:57;1.05;;;0.95;;
28836;SDS011;50669;50.982;11.022;2023-07-02T11:19:24;0.90;;;0.90;;
28836;SDS011;50669;50.982;11.022;2023-07-02T11:21:54;0.82;;;0.82;;
28836;SDS011;50669;50.982;11.022;2023-07-02T11:24:32;0.73;;;0.73;;
28836;SDS011;50669;50.982;11.022;2023-07-02T11:27:00;0.80;;;0.80;;
28836;SDS011;50669;50.982;11.022;2023-07-02T11:29:33;0.75;;;0.75;;
28836;SDS011;50669;50.982;11.022;2023-07-02T11:32:11;0.73;;;0.73;;
28836;SDS011;50669;50.982;11.022;2023-07-02T11:34:39;0.98;;;0.70;;
28836;SDS011;50669;50.982;11.022;2023-07-02T11:37:07;0.80;;;0.80;;
28836;SDS011;50669;50.982;11.022;2023-07-02T11:39:35;0.88;;;0.82;;
28836;SDS011;50669;50.982;11.022;2023-07-02T11:42:04;0.77;;;0.73;;
28836;SDS011;50669;50.982;11.022;2023-07-02T11:44:32;0.90;;;0.90;;
28836;SDS011;50669;50.982;11.022;2023-07-02T11:46:58;0.63;;;0.60;;
28836;SDS011;50669;50.982;11.022;2023-07-02T11:49:23;0.80;;;0.80;;
28836;SDS011;50669;50.982;11.022;2023-07-02T11:51:51;0.80;;;0.80;;
28836;SDS011;50669;50.982;11.022;2023-07-02T11:54:19;0.70;;;0.70;;
28836;SDS011;50669;50.982;11.022;2023-07-02T11:56:45;0.90;;;0.90;;
28836;SDS011;50669;50.982;11.022;2023-07-02T11:59:11;1.00;;;0.90;;
28836;SDS011;50669;50.982;11.022;2023-07-02T12:01:37;0.82;;;0.80;;
28836;SDS011;50669;50.982;11.022;2023-07-02T12:04:03;1.13;;;1.02;;
28836;SDS011;50669;50.982;11.022;2023-07-02T12:06:30;1.02;;;0.88;;
28836;SDS011;50669;50.982;11.022;2023-07-02T12:08:58;0.77;;;0.77;;
28836;SDS011;50669;50.982;11.022;2023-07-02T12:11:24;0.98;;;0.85;;
28836;SDS011;50669;50.982;11.022;2023-07-02T12:13:50;1.05;;;0.95;;
28836;SDS011;50669;50.982;11.022;2023-07-02T12:16:18;0.93;;;0.90;;
28836;SDS011;50669;50.982;11.022;2023-07-02T12:18:43;0.82;;;0.77;;
28836;SDS011;50669;50.982;11.022;2023-07-02T12:21:13;0.95;;;0.85;;
28836;SDS011;50669;50.982;11.022;2023-07-02T12:23:40;0.68;;;0.68;;
28836;SDS011;50669;50.982;11.022;2023-07-02T12:26:11;0.80;;;0.80;;
28836;SDS011;50669;50.982;11.022;2023-07-02T12:28:38;0.80;;;0.80;;
28836;SDS011;50669;50.982;11.022;2023-07-02T12:31:04;0.90;;;0.80;;
28836;SDS011;50669;50.982;11.022;2023-07-02T12:33:30;1.00;;;0.90;;
28836;SDS011;50669;50.982;11.022;2023-07-02T12:35:57;0.90;;;0.90;;
28836;SDS011;50669;50.982;11.022;2023-07-02T12:38:25;0.70;;;0.70;;
28836;SDS011;50669;50.982;11.022;2023-07-02T12:40:53;0.85;;;0.80;;
28836;SDS011;50669;50.982;11.022;2023-07-02T12:43:19;0.90;;;0.90;;
28836;SDS011;50669;50.982;11.022;2023-07-02T12:45:45;0.90;;;0.90;;
28836;SDS011;50669;50.982;11.022;2023-07-02T12:48:13;0.65;;;0.63;;
28836;SDS011;50669;50.982;11.022;2023-07-02T12:50:41;0.82;;;0.82;;
28836;SDS011;50669;50.982;11.022;2023-07-02T12:53:07;0.80;;;0.77;;
28836;SDS011;50669;50.982;11.022;2023-07-02T12:55:35;0.60;;;0.60;;
28836;SDS011;50669;50.982;11.022;2023-07-02T12:58:03;0.80;;;0.73;;
28836;SDS011;50669;50.982;11.022;2023-07-02T13:00:29;0.80;;;0.80;;
28836;SDS011;50669;50.982;11.022;2023-07-02T13:02:54;0.90;;;0.90;;
28836;SDS011;50669;50.982;11.022;2023-07-02T13:05:20;1.63;;;1.20;;
28836;SDS011;50669;50.982;11.022;2023-07-02T13:07:46;1.00;;;0.90;;
28836;SDS011;50669;50.982;11.022;2023-07-02T13:10:11;1.02;;;0.90;;
28836;SDS011;50669;50.982;11.022;2023-07-02T13:12:37;1.13;;;0.90;;
28836;SDS011;50669;50.982;11.022;2023-07-02T13:15:03;0.70;;;0.70;;
28836;SDS011;50669;50.982;11.022;2023-07-02T13:17:29;0.80;;;0.80;;
28836;SDS011;50669;50.982;11.022;2023-07-02T13:19:54;0.80;;;0.80;;
28836;SDS011;50669;50.982;11.022;2023-07-02T13:22:21;1.05;;;1.00;;
28836;SDS011;50669;50.982;11.022;2023-07-02T13:24:49;0.80;;;0.80;;
28836;SDS011;50669;50.982;11.022;2023-07-02T13:27:15;1.05;;;0.90;;
28836;SDS011;50669;50.982;11.022;2023-07-02T13:29:42;1.23;;;1.10;;
28836;SDS011;50669;50.982;11.022;2023-07-02T13:32:10;1.08;;;0.98;;
28836;SDS011;50669;50.982;11.022;2023-07-02T13:34:36;1.00;;;0.90;;
28836;SDS011;50669;50.982;11.022;2023-07-02T13:37:02;0.85;;;0.85;;
28836;SDS011;50669;50.982;11.022;2023-07-02T13:39:30;1.00;;;0.90;;
28836;SDS011;50669;50.982;11.022;2023-07-02T13:41:58;1.30;;;1.20;;
28836;SDS011;50669;50.982;11.022;2023-07-02T13:44:24;1.10;;;1.00;;
28836;SDS011;50669;50.982;11.022;2023-07-02T13:46:49;1.13;;;1.02;;
28836;SDS011;50669;50.982;11.022;2023-07-02T13:49:15;1.38;;;1.27;;
28836;SDS011;50669;50.982;11.022;2023-07-02T13:51:41;1.10;;;1.00;;
28836;SDS011;50669;50.982;11.022;2023-07-02T13:54:11;1.00;;;0.90;;
28836;SDS011;50669;50.982;11.022;2023-07-02T13:56:39;1.30;;;1.00;;
28836;SDS011;50669;50.982;11.022;2023-07-02T13:59:05;1.33;;;0.98;;
28836;SDS011;50669;50.982;11.022;2023-07-02T14:01:31;1.20;;;1.10;;
28836;SDS011;50669;50.982;11.022;2023-07-02T14:03:57;1.17;;;1.08;;
28836;SDS011;50669;50.982;11.022;2023-07-02T14:06:25;1.02;;;0.95;;
28836;SDS011;50669;50.982;11.022;2023-07-02T14:08:51;1.63;;;1.48;;
28836;SDS011;50669;50.982;11.022;2023-07-02T14:11:19;1.45;;;1.30;;
28836;SDS011;50669;50.982;11.022;2023-07-02T14:13:46;1.60;;;1.42;;
28836;SDS011;50669;50.982;11.022;2023-07-02T14:16:11;1.45;;;1.33;;
28836;SDS011;50669;50.982;11.022;2023-07-02T14:18:37;1.58;;;1.30;;
28836;SDS011;50669;50.982;11.022;2023-07-02T14:21:05;1.65;;;1.40;;
28836;SDS011;50669;50.982;11.022;2023-07-02T14:23:31;1.80;;;1.60;;
28836;SDS011;50669;50.982;11.022;2023-07-02T14:25:59;1.70;;;1.48;;
28836;SDS011;50669;50.982;11.022;2023-07-02T14:28:25;1.80;;;1.63;;
28836;SDS011;50669;50.982;11.022;2023-07-02T14:31:01;2.13;;;1.77;;
28836;SDS011;50669;50.982;11.022;2023-07-02T14:33:30;1.70;;;1.50;;
28836;SDS011;50669;50.982;11.022;2023-07-02T14:35:58;1.30;;;1.20;;
28836;SDS011;50669;50.982;11.022;2023-07-02T14:38:24;1.70;;;1.42;;
28836;SDS011;50669;50.982;11.022;2023-07-02T14:40:50;1.77;;;1.50;;
28836;SDS011;50669;50.982;11.022;2023-07-02T14:43:17;1.60;;;1.50;;
28836;SDS011;50669;50.982;11.022;2023-07-02T14:45:47;1.67;;;1.55;;
28836;SDS011;50669;50.982;11.022;2023-07-02T14:48:15;2.10;;;1.90;;
28836;SDS011;50669;50.982;11.022;2023-07-02T14:50:44;2.35;;;1.92;;